createdAt,value
2018-08-10T00:01:00.295Z,0
2018-08-10T00:02:09.715Z,0
2018-08-10T00:03:19.384Z,0
2018-08-10T00:04:28.806Z,0
2018-08-10T00:05:37.959Z,0
2018-08-10T00:06:47.911Z,0
2018-08-10T00:07:57.071Z,0
2018-08-10T00:09:06.238Z,0
2018-08-10T00:10:15.393Z,0
2018-08-10T00:11:24.570Z,0
2018-08-10T00:12:33.707Z,0
2018-08-10T00:13:42.852Z,0
2018-08-10T00:14:52.285Z,0
2018-08-10T00:16:01.436Z,0
2018-08-10T00:17:10.596Z,0
2018-08-10T00:18:20.528Z,0
2018-08-10T00:19:30.463Z,0
2018-08-10T00:20:39.640Z,0
2018-08-10T00:21:49.052Z,0
2018-08-10T00:22:58.485Z,0
2018-08-10T00:24:07.882Z,0
2018-08-10T00:25:17.310Z,0
2018-08-10T00:26:26.972Z,0
2018-08-10T00:27:36.140Z,0
2018-08-10T00:28:45.566Z,0
2018-08-10T00:29:54.464Z,0
2018-08-10T00:31:04.162Z,0
2018-08-10T00:32:13.825Z,0
2018-08-10T00:33:22.993Z,0
2018-08-10T00:34:32.678Z,0
2018-08-10T00:35:41.837Z,0
2018-08-10T00:36:50.997Z,0
2018-08-10T00:38:00.919Z,0
2018-08-10T00:39:09.821Z,0
2018-08-10T00:40:19.486Z,0
2018-08-10T00:41:28.915Z,0
2018-08-10T00:42:38.070Z,0
2018-08-10T00:43:47.239Z,0
2018-08-10T00:44:56.649Z,0
2018-08-10T00:46:06.356Z,0
2018-08-10T00:47:15.242Z,0
2018-08-10T00:48:23.879Z,0
2018-08-10T00:49:33.303Z,0
2018-08-10T00:50:42.489Z,0
2018-08-10T00:51:51.891Z,0
2018-08-10T00:53:01.812Z,0
2018-08-10T00:54:11.491Z,0
2018-08-10T00:55:20.929Z,0
2018-08-10T00:56:29.820Z,0
2018-08-10T00:57:39.023Z,0
2018-08-10T00:58:48.177Z,0
2018-08-10T00:59:57.585Z,0
2018-08-10T01:01:06.768Z,0
2018-08-10T01:02:16.182Z,0
2018-08-10T01:03:25.342Z,0
2018-08-10T01:04:34.037Z,0
2018-08-10T01:05:43.460Z,0
2018-08-10T01:06:52.861Z,0
2018-08-10T01:08:01.762Z,0
2018-08-10T01:09:11.427Z,0
2018-08-10T01:10:20.325Z,0
2018-08-10T01:11:30.241Z,0
2018-08-10T01:12:39.644Z,0
2018-08-10T01:13:48.848Z,0
2018-08-10T01:14:58.527Z,0
2018-08-10T01:16:07.952Z,0
2018-08-10T01:17:17.122Z,0
2018-08-10T01:18:26.829Z,0
2018-08-10T01:19:36.691Z,0
2018-08-10T01:20:46.098Z,0
2018-08-10T01:21:55.524Z,0
2018-08-10T01:23:04.958Z,0
2018-08-10T01:24:14.625Z,0
2018-08-10T01:25:23.783Z,0
2018-08-10T01:26:32.946Z,0
2018-08-10T01:27:42.606Z,0
2018-08-10T01:28:52.833Z,0
2018-08-10T01:30:02.406Z,0
2018-08-10T01:31:11.811Z,0
2018-08-10T01:32:20.968Z,0
2018-08-10T01:33:30.417Z,0
2018-08-10T01:34:39.578Z,0
2018-08-10T01:35:48.723Z,0
2018-08-10T01:36:58.413Z,0
2018-08-10T01:38:08.373Z,0
2018-08-10T01:39:17.530Z,0
2018-08-10T01:40:26.956Z,0
2018-08-10T01:41:36.163Z,0
2018-08-10T01:42:46.101Z,0
2018-08-10T01:43:55.759Z,0
2018-08-10T01:45:04.897Z,0
2018-08-10T01:46:14.828Z,0
2018-08-10T01:47:23.979Z,0
2018-08-10T01:48:33.136Z,0
2018-08-10T01:49:42.806Z,0
2018-08-10T01:50:52.493Z,0
2018-08-10T01:52:01.652Z,0
2018-08-10T01:53:11.319Z,0
2018-08-10T01:54:20.487Z,0
2018-08-10T01:55:29.640Z,0
2018-08-10T01:56:38.785Z,0
2018-08-10T01:57:48.016Z,0
2018-08-10T01:58:57.455Z,0
2018-08-10T02:00:06.868Z,0
2018-08-10T02:01:16.066Z,0
2018-08-10T02:02:24.948Z,0
2018-08-10T02:03:34.359Z,0
2018-08-10T02:04:43.759Z,0
2018-08-10T02:05:53.166Z,0
2018-08-10T02:07:02.062Z,0
2018-08-10T02:08:11.038Z,0
2018-08-10T02:09:20.198Z,0
2018-08-10T02:10:29.609Z,0
2018-08-10T02:11:39.019Z,0
2018-08-10T02:12:48.424Z,0
2018-08-10T02:13:57.584Z,0
2018-08-10T02:15:07.026Z,0
2018-08-10T02:16:16.707Z,0
2018-08-10T02:17:26.396Z,0
2018-08-10T02:18:35.829Z,0
2018-08-10T02:19:45.324Z,0
2018-08-10T02:20:54.719Z,0
2018-08-10T02:22:03.885Z,0
2018-08-10T02:23:13.292Z,0
2018-08-10T02:24:22.450Z,0
2018-08-10T02:25:31.641Z,0
2018-08-10T02:26:41.044Z,0
2018-08-10T02:27:50.491Z,0
2018-08-10T02:29:00.408Z,0
2018-08-10T02:30:09.581Z,0
2018-08-10T02:31:19.509Z,0
2018-08-10T02:32:29.446Z,0
2018-08-10T02:33:39.387Z,0
2018-08-10T02:34:48.800Z,0
2018-08-10T02:35:58.491Z,0
2018-08-10T02:37:07.920Z,0
2018-08-10T02:38:17.870Z,0
2018-08-10T02:39:27.026Z,0
2018-08-10T02:40:36.676Z,0
2018-08-10T02:41:46.653Z,0
2018-08-10T02:42:56.326Z,0
2018-08-10T02:44:05.786Z,0
2018-08-10T02:45:15.527Z,0
2018-08-10T02:46:25.226Z,0
2018-08-10T02:47:34.646Z,0
2018-08-10T02:48:44.319Z,0
2018-08-10T02:49:53.996Z,0
2018-08-10T02:51:03.405Z,0
2018-08-10T02:52:12.858Z,0
2018-08-10T02:53:22.525Z,0
2018-08-10T02:54:31.951Z,0
2018-08-10T02:55:42.250Z,0
2018-08-10T02:56:51.429Z,0
2018-08-10T02:58:01.341Z,0
2018-08-10T02:59:10.755Z,0
2018-08-10T03:00:20.170Z,0
2018-08-10T03:01:29.368Z,0
2018-08-10T03:02:38.780Z,0
2018-08-10T03:03:48.229Z,0
2018-08-10T03:04:58.150Z,0
2018-08-10T03:06:07.573Z,0
2018-08-10T03:07:17.522Z,0
2018-08-10T03:08:27.194Z,0
2018-08-10T03:09:36.888Z,0
2018-08-10T03:10:46.061Z,0
2018-08-10T03:11:55.747Z,0
2018-08-10T03:13:05.678Z,0
2018-08-10T03:14:15.381Z,0
2018-08-10T03:15:24.811Z,0
2018-08-10T03:16:34.236Z,0
2018-08-10T03:17:43.903Z,0
2018-08-10T03:18:53.346Z,0
2018-08-10T03:20:02.774Z,0
2018-08-10T03:21:11.923Z,0
2018-08-10T03:22:21.379Z,0
2018-08-10T03:23:30.533Z,0
2018-08-10T03:24:39.697Z,0
2018-08-10T03:25:49.381Z,0
2018-08-10T03:26:59.320Z,0
2018-08-10T03:28:09.025Z,0
2018-08-10T03:29:18.689Z,0
2018-08-10T03:30:28.393Z,0
2018-08-10T03:31:37.797Z,0
2018-08-10T03:32:47.211Z,0
2018-08-10T03:33:56.621Z,0
2018-08-10T03:35:06.293Z,0
2018-08-10T03:36:15.444Z,0
2018-08-10T03:37:24.109Z,0
2018-08-10T03:38:33.314Z,0
2018-08-10T03:39:42.967Z,0
2018-08-10T03:40:52.660Z,0
2018-08-10T03:42:02.339Z,0
2018-08-10T03:43:11.502Z,0
2018-08-10T03:44:21.210Z,0
2018-08-10T03:45:30.917Z,0
2018-08-10T03:46:40.062Z,0
2018-08-10T03:47:49.234Z,0
2018-08-10T03:48:58.392Z,0
2018-08-10T03:50:07.603Z,0
2018-08-10T03:51:16.757Z,0
2018-08-10T03:52:26.156Z,0
2018-08-10T03:53:35.325Z,0
2018-08-10T03:54:44.738Z,0
2018-08-10T03:55:54.411Z,0
2018-08-10T03:57:03.828Z,0
2018-08-10T03:58:12.724Z,0
2018-08-10T03:59:22.401Z,0
2018-08-10T04:00:32.165Z,0
2018-08-10T04:01:41.848Z,0
2018-08-10T04:02:51.535Z,0
2018-08-10T04:04:00.695Z,0
2018-08-10T04:05:10.187Z,0
2018-08-10T04:06:19.600Z,0
2018-08-10T04:07:29.705Z,0
2018-08-10T04:08:38.336Z,0
2018-08-10T04:09:48.007Z,0
2018-08-10T04:10:57.934Z,0
2018-08-10T04:12:07.312Z,0
2018-08-10T04:13:16.739Z,0
2018-08-10T04:14:26.159Z,0
2018-08-10T04:15:35.337Z,0
2018-08-10T04:16:44.491Z,0
2018-08-10T04:17:54.176Z,0
2018-08-10T04:19:03.584Z,0
2018-08-10T04:20:13.427Z,0
2018-08-10T04:21:22.698Z,0
2018-08-10T04:22:31.910Z,0
2018-08-10T04:23:41.090Z,0
2018-08-10T04:24:51.245Z,0
2018-08-10T04:26:00.660Z,0
2018-08-10T04:27:10.320Z,0
2018-08-10T04:28:19.992Z,0
2018-08-10T04:29:29.573Z,0
2018-08-10T04:30:39.559Z,0
2018-08-10T04:31:48.703Z,0
2018-08-10T04:32:58.010Z,0
2018-08-10T04:34:07.438Z,0
2018-08-10T04:35:16.577Z,0
2018-08-10T04:36:26.000Z,0
2018-08-10T04:37:35.834Z,0
2018-08-10T04:38:45.403Z,0
2018-08-10T04:39:54.909Z,0
2018-08-10T04:41:04.586Z,0
2018-08-10T04:42:14.312Z,0
2018-08-10T04:43:24.038Z,4
2018-08-10T04:44:33.197Z,4
2018-08-10T04:45:42.894Z,4
2018-08-10T04:46:52.330Z,4
2018-08-10T04:48:01.603Z,4
2018-08-10T04:49:11.556Z,4
2018-08-10T04:50:20.722Z,0
2018-08-10T04:51:30.144Z,0
2018-08-10T04:52:39.815Z,0
2018-08-10T04:53:49.236Z,0
2018-08-10T04:54:58.711Z,0
2018-08-10T04:56:08.197Z,0
2018-08-10T04:57:17.618Z,0
2018-08-10T04:58:27.035Z,0
2018-08-10T04:59:36.458Z,0
2018-08-10T05:00:45.877Z,0
2018-08-10T05:01:54.786Z,0
2018-08-10T05:03:04.478Z,4
2018-08-10T05:04:13.394Z,4
2018-08-10T05:05:22.805Z,4
2018-08-10T05:06:31.961Z,4
2018-08-10T05:07:41.130Z,4
2018-08-10T05:08:50.784Z,4
2018-08-10T05:10:00.568Z,4
2018-08-10T05:11:10.069Z,4
2018-08-10T05:12:19.231Z,0
2018-08-10T05:13:28.416Z,4
2018-08-10T05:14:37.613Z,4
2018-08-10T05:15:47.014Z,0
2018-08-10T05:16:56.510Z,4
2018-08-10T05:18:05.935Z,4
2018-08-10T05:19:15.356Z,8
2018-08-10T05:20:24.502Z,8
2018-08-10T05:21:34.168Z,4
2018-08-10T05:22:43.067Z,8
2018-08-10T05:23:52.225Z,8
2018-08-10T05:25:01.379Z,8
2018-08-10T05:26:10.818Z,8
2018-08-10T05:27:20.242Z,12
2018-08-10T05:28:29.916Z,12
2018-08-10T05:29:39.067Z,12
2018-08-10T05:30:48.231Z,16
2018-08-10T05:31:57.131Z,16
2018-08-10T05:33:06.543Z,20
2018-08-10T05:34:15.972Z,20
2018-08-10T05:35:25.378Z,20
2018-08-10T05:36:34.534Z,20
2018-08-10T05:37:43.716Z,20
2018-08-10T05:38:53.139Z,20
2018-08-10T05:40:02.570Z,24
2018-08-10T05:41:11.473Z,28
2018-08-10T05:42:20.645Z,28
2018-08-10T05:43:30.333Z,28
2018-08-10T05:44:39.497Z,32
2018-08-10T05:45:49.172Z,28
2018-08-10T05:46:59.369Z,28
2018-08-10T05:48:09.898Z,28
2018-08-10T05:49:19.654Z,4
2018-08-10T05:50:28.832Z,4
2018-08-10T05:51:37.981Z,24
2018-08-10T05:52:47.399Z,24
2018-08-10T05:53:56.565Z,28
2018-08-10T05:55:06.502Z,28
2018-08-10T05:56:15.921Z,28
2018-08-10T05:57:25.921Z,28
2018-08-10T05:58:35.348Z,28
2018-08-10T05:59:44.754Z,28
2018-08-10T06:00:54.978Z,28
2018-08-10T06:02:03.892Z,24
2018-08-10T06:03:13.394Z,24
2018-08-10T06:04:22.875Z,12
2018-08-10T06:05:32.324Z,8
2018-08-10T06:06:41.996Z,0
2018-08-10T06:07:51.138Z,4
2018-08-10T06:09:00.809Z,0
2018-08-10T06:10:10.227Z,0
2018-08-10T06:11:19.639Z,4
2018-08-10T06:12:29.492Z,4
2018-08-10T06:13:38.641Z,4
2018-08-10T06:14:47.548Z,0
2018-08-10T06:15:56.696Z,0
2018-08-10T06:17:05.843Z,4
2018-08-10T06:18:15.266Z,4
2018-08-10T06:19:25.102Z,4
2018-08-10T06:20:34.848Z,4
2018-08-10T06:21:44.511Z,0
2018-08-10T06:22:53.853Z,0
2018-08-10T06:24:03.387Z,0
2018-08-10T06:25:13.103Z,0
2018-08-10T06:26:22.271Z,0
2018-08-10T06:27:31.428Z,0
2018-08-10T06:28:41.081Z,0
2018-08-10T06:29:50.295Z,0
2018-08-10T06:30:59.457Z,0
2018-08-10T06:32:09.159Z,0
2018-08-10T06:33:18.568Z,0
2018-08-10T06:34:28.244Z,0
2018-08-10T06:35:37.143Z,0
2018-08-10T06:36:46.299Z,0
2018-08-10T06:37:55.462Z,0
2018-08-10T06:39:04.745Z,0
2018-08-10T06:40:14.708Z,0
2018-08-10T06:41:24.117Z,0
2018-08-10T06:42:33.281Z,0
2018-08-10T06:43:42.161Z,0
2018-08-10T06:44:51.751Z,0
2018-08-10T06:46:01.473Z,0
2018-08-10T06:47:10.646Z,0
2018-08-10T06:48:20.517Z,0
2018-08-10T06:49:29.935Z,0
2018-08-10T06:50:39.183Z,0
2018-08-10T06:51:48.603Z,0
2018-08-10T06:52:57.755Z,0
2018-08-10T06:54:06.679Z,0
2018-08-10T06:55:15.871Z,0
2018-08-10T06:56:25.024Z,0
2018-08-10T06:57:34.450Z,0
2018-08-10T06:58:43.850Z,0
2018-08-10T06:59:53.000Z,0
2018-08-10T07:01:02.790Z,0
2018-08-10T07:02:12.497Z,0
2018-08-10T07:03:21.939Z,0
2018-08-10T07:04:31.098Z,0
2018-08-10T07:05:41.074Z,0
2018-08-10T07:06:50.031Z,0
2018-08-10T07:07:59.548Z,0
2018-08-10T07:09:09.001Z,0
2018-08-10T07:10:18.451Z,0
2018-08-10T07:11:28.133Z,0
2018-08-10T07:12:37.553Z,0
2018-08-10T07:13:47.611Z,0
2018-08-10T07:14:57.031Z,0
2018-08-10T07:16:06.465Z,0
2018-08-10T07:17:16.117Z,0
2018-08-10T07:18:26.066Z,0
2018-08-10T07:19:35.486Z,4
2018-08-10T07:20:44.403Z,4
2018-08-10T07:21:53.046Z,4
2018-08-10T07:23:02.721Z,0
2018-08-10T07:24:12.125Z,0
2018-08-10T07:25:21.305Z,0
2018-08-10T07:26:30.487Z,4
2018-08-10T07:27:39.384Z,4
2018-08-10T07:28:48.546Z,4
2018-08-10T07:29:58.227Z,4
2018-08-10T07:31:07.416Z,0
2018-08-10T07:32:16.902Z,4
2018-08-10T07:33:25.794Z,4
2018-08-10T07:34:35.512Z,0
2018-08-10T07:35:44.930Z,0
2018-08-10T07:36:54.602Z,4
2018-08-10T07:38:03.764Z,4
2018-08-10T07:39:13.175Z,4
2018-08-10T07:40:22.617Z,4
2018-08-10T07:41:31.506Z,4
2018-08-10T07:42:40.680Z,0
2018-08-10T07:43:50.353Z,4
2018-08-10T07:45:00.289Z,0
2018-08-10T07:46:09.451Z,0
2018-08-10T07:47:18.627Z,4
2018-08-10T07:48:28.042Z,4
2018-08-10T07:49:37.188Z,4
2018-08-10T07:50:46.341Z,4
2018-08-10T07:51:55.803Z,4
2018-08-10T07:53:05.498Z,4
2018-08-10T07:54:14.648Z,0
2018-08-10T07:55:24.302Z,4
2018-08-10T07:56:33.976Z,4
2018-08-10T07:57:43.642Z,4
2018-08-10T07:58:52.540Z,4
2018-08-10T08:00:01.951Z,4
2018-08-10T08:01:11.381Z,4
2018-08-10T08:02:21.087Z,4
2018-08-10T08:03:30.919Z,4
2018-08-10T08:04:40.596Z,4
2018-08-10T08:05:49.745Z,4
2018-08-10T08:06:59.284Z,4
2018-08-10T08:08:08.179Z,4
2018-08-10T08:09:17.129Z,0
2018-08-10T08:10:26.692Z,0
2018-08-10T08:11:36.477Z,0
2018-08-10T08:12:45.663Z,0
2018-08-10T08:13:55.626Z,0
2018-08-10T08:15:04.775Z,4
2018-08-10T08:16:14.455Z,0
2018-08-10T08:17:23.343Z,0
2018-08-10T08:18:32.756Z,0
2018-08-10T08:19:42.738Z,0
2018-08-10T08:20:52.470Z,0
2018-08-10T08:22:01.886Z,0
2018-08-10T08:23:11.563Z,0
2018-08-10T08:24:21.509Z,4
2018-08-10T08:25:30.652Z,4
2018-08-10T08:26:39.286Z,0
2018-08-10T08:27:47.955Z,0
2018-08-10T08:28:56.882Z,0
2018-08-10T08:30:06.311Z,0
2018-08-10T08:31:15.205Z,0
2018-08-10T08:32:24.620Z,0
2018-08-10T08:33:33.261Z,0
2018-08-10T08:34:43.340Z,0
2018-08-10T08:35:53.000Z,0
2018-08-10T08:37:03.352Z,0
2018-08-10T08:38:13.118Z,0
2018-08-10T08:39:22.370Z,0
2018-08-10T08:40:31.774Z,0
2018-08-10T08:41:41.424Z,0
2018-08-10T08:42:50.859Z,0
2018-08-10T08:44:00.079Z,0
2018-08-10T08:45:09.502Z,0
2018-08-10T08:46:20.097Z,0
2018-08-10T08:47:30.247Z,0
2018-08-10T08:48:39.410Z,0
2018-08-10T08:49:48.566Z,0
2018-08-10T08:50:58.247Z,0
2018-08-10T08:52:07.675Z,0
2018-08-10T08:53:17.103Z,0
2018-08-10T08:54:26.281Z,0
2018-08-10T08:55:35.709Z,0
2018-08-10T08:56:44.877Z,0
2018-08-10T08:57:53.804Z,0
2018-08-10T08:59:03.250Z,0
2018-08-10T09:00:12.409Z,4
2018-08-10T09:01:21.810Z,4
2018-08-10T09:02:31.213Z,4
2018-08-10T09:03:40.905Z,4
2018-08-10T09:04:50.062Z,4
2018-08-10T09:05:59.983Z,4
2018-08-10T09:07:09.176Z,4
2018-08-10T09:08:18.974Z,4
2018-08-10T09:09:28.141Z,4
2018-08-10T09:10:37.306Z,4
2018-08-10T09:11:46.715Z,0
2018-08-10T09:12:56.144Z,4
2018-08-10T09:14:05.060Z,4
2018-08-10T09:15:14.488Z,0
2018-08-10T09:16:23.650Z,4
2018-08-10T09:17:34.108Z,4
2018-08-10T09:18:43.462Z,0
2018-08-10T09:19:52.609Z,0
2018-08-10T09:21:02.016Z,0
2018-08-10T09:22:11.678Z,4
2018-08-10T09:23:21.279Z,0
2018-08-10T09:24:30.377Z,0
2018-08-10T09:25:40.250Z,0
2018-08-10T09:26:49.672Z,0
2018-08-10T09:27:58.557Z,0
2018-08-10T09:29:08.227Z,0
2018-08-10T09:30:17.939Z,0
2018-08-10T09:31:27.099Z,0
2018-08-10T09:32:36.767Z,0
2018-08-10T09:33:45.699Z,0
2018-08-10T09:34:54.897Z,0
2018-08-10T09:36:04.327Z,0
2018-08-10T09:37:13.782Z,0
2018-08-10T09:38:22.986Z,0
2018-08-10T09:39:32.401Z,0
2018-08-10T09:40:41.829Z,0
2018-08-10T09:41:51.502Z,0
2018-08-10T09:43:01.618Z,0
2018-08-10T09:44:11.046Z,0
2018-08-10T09:45:20.897Z,4
2018-08-10T09:46:30.483Z,4
2018-08-10T09:47:39.628Z,4
2018-08-10T09:48:49.053Z,4
2018-08-10T09:49:58.462Z,0
2018-08-10T09:51:07.881Z,0
2018-08-10T09:52:17.319Z,0
2018-08-10T09:53:26.987Z,0
2018-08-10T09:54:36.126Z,0
2018-08-10T09:55:45.544Z,0
2018-08-10T09:56:54.436Z,0
2018-08-10T09:58:03.934Z,0
2018-08-10T09:59:12.836Z,0
2018-08-10T10:00:22.245Z,0
2018-08-10T10:01:32.001Z,0
2018-08-10T10:02:41.430Z,0
2018-08-10T10:03:50.346Z,0
2018-08-10T10:05:00.010Z,0
2018-08-10T10:06:09.699Z,0
2018-08-10T10:07:18.847Z,0
2018-08-10T10:08:28.037Z,0
2018-08-10T10:09:37.455Z,0
2018-08-10T10:10:47.130Z,0
2018-08-10T10:11:56.803Z,0
2018-08-10T10:13:06.237Z,0
2018-08-10T10:14:15.902Z,0
2018-08-10T10:15:24.856Z,0
2018-08-10T10:16:34.015Z,0
2018-08-10T10:17:43.212Z,0
2018-08-10T10:18:52.392Z,0
2018-08-10T10:20:01.307Z,0
2018-08-10T10:21:10.863Z,0
2018-08-10T10:22:20.079Z,0
2018-08-10T10:23:29.243Z,0
2018-08-10T10:24:38.653Z,4
2018-08-10T10:25:47.603Z,4
2018-08-10T10:26:56.762Z,4
2018-08-10T10:28:06.691Z,0
2018-08-10T10:29:15.853Z,0
2018-08-10T10:30:25.265Z,0
2018-08-10T10:31:34.666Z,0
2018-08-10T10:32:44.242Z,0
2018-08-10T10:33:53.479Z,0
2018-08-10T10:35:02.377Z,0
2018-08-10T10:36:11.552Z,0
2018-08-10T10:37:21.222Z,0
2018-08-10T10:38:30.655Z,0
2018-08-10T10:39:40.082Z,0
2018-08-10T10:40:49.500Z,4
2018-08-10T10:41:58.667Z,0
2018-08-10T10:43:08.610Z,0
2018-08-10T10:44:17.765Z,0
2018-08-10T10:45:26.940Z,0
2018-08-10T10:46:36.649Z,0
2018-08-10T10:47:46.315Z,0
2018-08-10T10:48:55.982Z,0
2018-08-10T10:50:04.893Z,0
2018-08-10T10:51:14.054Z,4
2018-08-10T10:52:23.206Z,4
2018-08-10T10:53:32.902Z,4
2018-08-10T10:54:42.111Z,4
2018-08-10T10:55:51.276Z,4
2018-08-10T10:57:01.248Z,4
2018-08-10T10:58:10.952Z,4
2018-08-10T10:59:20.356Z,4
2018-08-10T11:00:29.791Z,4
2018-08-10T11:01:38.734Z,4
2018-08-10T11:02:48.213Z,4
2018-08-10T11:03:57.326Z,4
2018-08-10T11:05:07.004Z,4
2018-08-10T11:06:16.514Z,4
2018-08-10T11:07:26.055Z,0
2018-08-10T11:08:35.552Z,0
2018-08-10T11:09:45.227Z,0
2018-08-10T11:10:54.639Z,0
2018-08-10T11:12:04.070Z,4
2018-08-10T11:13:12.977Z,4
2018-08-10T11:14:22.409Z,4
2018-08-10T11:15:31.582Z,4
2018-08-10T11:16:41.274Z,4
2018-08-10T11:17:51.199Z,4
2018-08-10T11:19:00.882Z,4
2018-08-10T11:20:10.329Z,4
2018-08-10T11:21:19.751Z,4
2018-08-10T11:22:29.412Z,4
2018-08-10T11:23:38.561Z,4
2018-08-10T11:24:48.231Z,4
2018-08-10T11:25:58.539Z,4
2018-08-10T11:27:08.372Z,4
2018-08-10T11:28:17.524Z,0
2018-08-10T11:29:26.933Z,0
2018-08-10T11:30:35.879Z,0
2018-08-10T11:31:45.556Z,0
2018-08-10T11:32:54.711Z,0
2018-08-10T11:34:03.626Z,0
2018-08-10T11:35:13.312Z,4
2018-08-10T11:36:22.483Z,4
2018-08-10T11:37:31.903Z,4
2018-08-10T11:38:40.803Z,4
2018-08-10T11:39:49.704Z,4
2018-08-10T11:40:59.107Z,4
2018-08-10T11:42:08.513Z,4
2018-08-10T11:43:18.449Z,0
2018-08-10T11:44:27.612Z,0
2018-08-10T11:45:37.275Z,4
2018-08-10T11:46:46.424Z,4
2018-08-10T11:47:55.336Z,4
2018-08-10T11:49:04.748Z,4
2018-08-10T11:50:15.194Z,4
2018-08-10T11:51:24.082Z,4
2018-08-10T11:52:33.931Z,0
2018-08-10T11:53:43.754Z,4
2018-08-10T11:54:53.164Z,0
2018-08-10T11:56:02.597Z,0
2018-08-10T11:57:12.033Z,0
2018-08-10T11:58:21.232Z,0
2018-08-10T11:59:30.644Z,4
2018-08-10T12:00:39.817Z,4
2018-08-10T12:01:49.692Z,0
2018-08-10T12:02:59.754Z,0
2018-08-10T12:04:09.847Z,0
2018-08-10T12:05:18.750Z,0
2018-08-10T12:06:28.628Z,0
2018-08-10T12:07:37.785Z,4
2018-08-10T12:08:46.930Z,0
2018-08-10T12:09:56.333Z,0
2018-08-10T12:11:05.994Z,0
2018-08-10T12:12:15.476Z,0
2018-08-10T12:13:24.889Z,0
2018-08-10T12:14:34.042Z,0
2018-08-10T12:15:43.451Z,0
2018-08-10T12:16:52.604Z,4
2018-08-10T12:18:02.002Z,4
2018-08-10T12:19:11.794Z,4
2018-08-10T12:20:21.794Z,4
2018-08-10T12:21:31.208Z,4
2018-08-10T12:22:40.915Z,4
2018-08-10T12:23:50.346Z,8
2018-08-10T12:24:59.785Z,8
2018-08-10T12:26:09.453Z,8
2018-08-10T12:27:18.871Z,8
2018-08-10T12:28:28.016Z,8
2018-08-10T12:29:37.186Z,4
2018-08-10T12:30:47.119Z,8
2018-08-10T12:31:56.539Z,0
2018-08-10T12:33:05.687Z,4
2018-08-10T12:34:14.910Z,4
2018-08-10T12:35:23.540Z,8
2018-08-10T12:36:32.944Z,4
2018-08-10T12:37:42.108Z,8
2018-08-10T12:38:51.524Z,4
2018-08-10T12:40:01.200Z,4
2018-08-10T12:41:10.092Z,4
2018-08-10T12:42:19.237Z,8
2018-08-10T12:43:28.125Z,4
2018-08-10T12:44:37.554Z,8
2018-08-10T12:45:46.958Z,4
2018-08-10T12:46:56.122Z,8
2018-08-10T12:48:05.024Z,8
2018-08-10T12:49:14.429Z,0
2018-08-10T12:50:24.043Z,4
2018-08-10T12:51:33.037Z,0
2018-08-10T12:52:42.195Z,0
2018-08-10T12:53:51.354Z,0
2018-08-10T12:55:00.762Z,0
2018-08-10T12:56:09.940Z,4
2018-08-10T12:57:19.251Z,8
2018-08-10T12:58:28.472Z,8
2018-08-10T12:59:37.631Z,8
2018-08-10T13:00:46.527Z,8
2018-08-10T13:01:56.201Z,8
2018-08-10T13:03:06.107Z,12
2018-08-10T13:04:15.409Z,12
2018-08-10T13:05:24.562Z,0
2018-08-10T13:06:33.729Z,0
2018-08-10T13:07:43.198Z,12
2018-08-10T13:08:52.625Z,0
2018-08-10T13:10:02.583Z,8
2018-08-10T13:11:12.277Z,12
2018-08-10T13:12:21.174Z,12
2018-08-10T13:13:30.845Z,12
2018-08-10T13:14:40.256Z,12
2018-08-10T13:15:49.672Z,12
2018-08-10T13:16:58.821Z,12
2018-08-10T13:18:08.497Z,4
2018-08-10T13:19:17.639Z,12
2018-08-10T13:20:27.304Z,12
2018-08-10T13:21:37.245Z,12
2018-08-10T13:22:46.406Z,12
2018-08-10T13:23:56.008Z,12
2018-08-10T13:25:05.857Z,12
2018-08-10T13:26:15.268Z,4
2018-08-10T13:27:24.680Z,0
2018-08-10T13:28:33.907Z,4
2018-08-10T13:29:43.787Z,12
2018-08-10T13:30:53.215Z,12
2018-08-10T13:32:02.383Z,12
2018-08-10T13:33:12.050Z,12
2018-08-10T13:34:21.732Z,12
2018-08-10T13:35:30.924Z,0
2018-08-10T13:36:40.978Z,0
2018-08-10T13:37:50.380Z,4
2018-08-10T13:38:59.789Z,0
2018-08-10T13:40:08.937Z,4
2018-08-10T13:41:18.337Z,16
2018-08-10T13:42:27.766Z,0
2018-08-10T13:43:37.010Z,4
2018-08-10T13:44:46.865Z,12
2018-08-10T13:45:56.048Z,0
2018-08-10T13:47:05.225Z,0
2018-08-10T13:48:14.376Z,0
2018-08-10T13:49:23.811Z,4
2018-08-10T13:50:32.711Z,12
2018-08-10T13:51:41.882Z,12
2018-08-10T13:52:51.287Z,16
2018-08-10T13:54:00.693Z,16
2018-08-10T13:55:09.867Z,12
2018-08-10T13:56:19.562Z,16
2018-08-10T13:57:28.970Z,12
2018-08-10T13:58:38.498Z,16
2018-08-10T13:59:47.626Z,12
2018-08-10T14:00:57.057Z,12
2018-08-10T14:02:06.520Z,12
2018-08-10T14:03:16.453Z,12
2018-08-10T14:04:25.858Z,16
2018-08-10T14:05:35.279Z,12
2018-08-10T14:06:44.811Z,4
2018-08-10T14:07:54.235Z,0
2018-08-10T14:09:03.651Z,0
2018-08-10T14:10:13.063Z,12
2018-08-10T14:11:22.214Z,16
2018-08-10T14:12:31.369Z,16
2018-08-10T14:13:40.527Z,12
2018-08-10T14:14:50.224Z,4
2018-08-10T14:16:00.217Z,4
2018-08-10T14:17:09.948Z,16
2018-08-10T14:18:19.358Z,16
2018-08-10T14:19:28.774Z,16
2018-08-10T14:20:37.944Z,12
2018-08-10T14:21:47.603Z,4
2018-08-10T14:22:57.019Z,12
2018-08-10T14:24:06.695Z,0
2018-08-10T14:25:16.372Z,0
2018-08-10T14:26:25.841Z,0
2018-08-10T14:27:35.280Z,12
2018-08-10T14:28:44.445Z,8
2018-08-10T14:29:54.122Z,4
2018-08-10T14:31:03.039Z,12
2018-08-10T14:32:11.940Z,4
2018-08-10T14:33:21.183Z,12
2018-08-10T14:34:30.354Z,12
2018-08-10T14:35:39.771Z,8
2018-08-10T14:36:48.682Z,8
2018-08-10T14:37:58.132Z,8
2018-08-10T14:39:07.294Z,8
2018-08-10T14:40:16.737Z,12
2018-08-10T14:41:27.389Z,8
2018-08-10T14:42:36.313Z,8
2018-08-10T14:43:44.962Z,8
2018-08-10T14:44:54.141Z,12
2018-08-10T14:46:03.308Z,8
2018-08-10T14:47:13.158Z,8
2018-08-10T14:48:23.081Z,8
2018-08-10T14:49:32.779Z,12
2018-08-10T14:50:42.451Z,8
2018-08-10T14:51:51.344Z,12
2018-08-10T14:53:01.029Z,8
2018-08-10T14:54:10.720Z,8
2018-08-10T14:55:20.407Z,0
2018-08-10T14:56:29.830Z,0
2018-08-10T14:57:39.550Z,0
2018-08-10T14:58:48.970Z,0
2018-08-10T14:59:58.395Z,0
2018-08-10T15:01:08.532Z,4
2018-08-10T15:02:18.227Z,0
2018-08-10T15:03:27.681Z,0
2018-08-10T15:04:37.133Z,0
2018-08-10T15:05:46.309Z,0
2018-08-10T15:06:55.458Z,0
2018-08-10T15:08:04.353Z,0
2018-08-10T15:09:13.531Z,0
2018-08-10T15:10:22.440Z,0
2018-08-10T15:11:31.846Z,0
2018-08-10T15:12:43.437Z,0
2018-08-10T15:13:52.912Z,0
2018-08-10T15:15:02.312Z,0
2018-08-10T15:16:11.527Z,0
2018-08-10T15:17:20.944Z,0
2018-08-10T15:18:30.115Z,0
2018-08-10T15:19:38.762Z,0
2018-08-10T15:20:47.467Z,0
2018-08-10T15:21:56.359Z,0
2018-08-10T15:23:05.553Z,0
2018-08-10T15:24:15.223Z,0
2018-08-10T15:25:24.710Z,0
2018-08-10T15:26:34.123Z,0
2018-08-10T15:27:43.325Z,0
2018-08-10T15:28:52.485Z,0
2018-08-10T15:30:01.935Z,0
2018-08-10T15:31:10.573Z,0
2018-08-10T15:32:19.723Z,0
2018-08-10T15:33:28.884Z,0
2018-08-10T15:34:38.326Z,0
2018-08-10T15:35:47.501Z,0
2018-08-10T15:36:56.913Z,0
2018-08-10T15:38:06.577Z,0
2018-08-10T15:39:15.466Z,0
2018-08-10T15:40:24.890Z,0
2018-08-10T15:41:34.034Z,0
2018-08-10T15:42:43.442Z,0
2018-08-10T15:43:52.708Z,4
2018-08-10T15:45:02.125Z,4
2018-08-10T15:46:11.545Z,0
2018-08-10T15:47:20.948Z,4
2018-08-10T15:48:30.355Z,8
2018-08-10T15:49:39.776Z,4
2018-08-10T15:50:48.924Z,4
2018-08-10T15:51:57.831Z,4
2018-08-10T15:53:07.280Z,4
2018-08-10T15:54:16.488Z,4
2018-08-10T15:55:26.016Z,8
2018-08-10T15:56:35.364Z,8
2018-08-10T15:57:44.510Z,4
2018-08-10T15:58:53.655Z,4
2018-08-10T16:00:02.553Z,4
2018-08-10T16:01:11.445Z,4
2018-08-10T16:02:21.048Z,4
2018-08-10T16:03:30.200Z,4
2018-08-10T16:04:39.374Z,8
2018-08-10T16:05:48.272Z,4
2018-08-10T16:06:57.429Z,4
2018-08-10T16:08:07.262Z,4
2018-08-10T16:09:16.697Z,4
2018-08-10T16:10:25.852Z,4
2018-08-10T16:11:35.016Z,4
2018-08-10T16:12:44.449Z,4
2018-08-10T16:13:53.080Z,4
2018-08-10T16:15:02.227Z,4
2018-08-10T16:16:11.120Z,8
2018-08-10T16:17:20.788Z,4
2018-08-10T16:18:30.192Z,8
2018-08-10T16:19:40.112Z,4
2018-08-10T16:20:49.775Z,4
2018-08-10T16:21:58.735Z,4
2018-08-10T16:23:08.169Z,4
2018-08-10T16:24:17.848Z,4
2018-08-10T16:25:27.323Z,4
2018-08-10T16:26:36.498Z,8
2018-08-10T16:27:45.413Z,4
2018-08-10T16:28:54.556Z,4
2018-08-10T16:30:03.976Z,4
2018-08-10T16:31:13.386Z,4
2018-08-10T16:32:22.810Z,8
2018-08-10T16:33:31.779Z,8
2018-08-10T16:34:40.966Z,4
2018-08-10T16:35:49.869Z,4
2018-08-10T16:36:59.011Z,8
2018-08-10T16:38:08.172Z,8
2018-08-10T16:39:17.335Z,4
2018-08-10T16:40:26.501Z,4
2018-08-10T16:41:35.904Z,4
2018-08-10T16:42:45.334Z,4
2018-08-10T16:43:54.804Z,4
2018-08-10T16:45:03.970Z,4
2018-08-10T16:46:13.393Z,4
2018-08-10T16:47:22.821Z,0
2018-08-10T16:48:32.522Z,4
2018-08-10T16:49:42.214Z,4
2018-08-10T16:50:51.898Z,4
2018-08-10T16:52:01.042Z,4
2018-08-10T16:53:09.941Z,0
2018-08-10T16:54:19.368Z,4
2018-08-10T16:55:28.795Z,4
2018-08-10T16:56:38.463Z,0
2018-08-10T16:57:47.867Z,0
2018-08-10T16:58:57.289Z,4
2018-08-10T17:00:06.457Z,4
2018-08-10T17:01:15.928Z,0
2018-08-10T17:02:25.584Z,4
2018-08-10T17:03:35.021Z,4